createdAt,value
2019-02-05T00:00:54.962Z,19.73
2019-02-05T00:03:26.957Z,19.80
2019-02-05T00:05:58.953Z,18.90
2019-02-05T00:08:30.925Z,19.50
2019-02-05T00:11:04.586Z,20.23
2019-02-05T00:13:36.643Z,18.07
2019-02-05T00:16:08.632Z,19.63
2019-02-05T00:18:40.593Z,16.80
2019-02-05T00:21:12.610Z,19.30
2019-02-05T00:23:44.572Z,19.17
2019-02-05T00:26:16.576Z,19.30
2019-02-05T00:28:48.764Z,17.73
2019-02-05T00:31:20.364Z,17.63
2019-02-05T00:33:52.337Z,16.97
2019-02-05T00:36:24.377Z,18.40
2019-02-05T00:38:56.344Z,18.87
2019-02-05T00:41:41.125Z,18.10
2019-02-05T00:44:13.091Z,19.70
2019-02-05T00:46:45.104Z,19.50
2019-02-05T00:49:17.072Z,18.57
2019-02-05T00:51:49.631Z,19.13
2019-02-05T00:54:21.647Z,18.07
2019-02-05T00:56:55.584Z,17.30
2019-02-05T00:59:27.564Z,19.00
2019-02-05T01:01:59.609Z,18.37
2019-02-05T01:04:31.602Z,19.03
2019-02-05T01:07:03.724Z,17.53
2019-02-05T01:09:35.715Z,17.17
2019-02-05T01:12:27.182Z,19.43
2019-02-05T01:14:59.183Z,19.40
2019-02-05T01:17:33.126Z,20.30
2019-02-05T01:20:07.106Z,19.33
2019-02-05T01:22:39.099Z,17.73
2019-02-05T01:25:11.198Z,18.07
2019-02-05T01:27:43.199Z,19.50
2019-02-05T01:30:17.551Z,18.57
2019-02-05T01:32:49.860Z,18.47
2019-02-05T01:36:02.638Z,18.87
2019-02-05T01:38:34.642Z,19.17
2019-02-05T01:41:06.676Z,18.30
2019-02-05T01:43:38.663Z,19.80
2019-02-05T01:46:12.533Z,17.13
2019-02-05T01:49:25.353Z,20.13
2019-02-05T01:51:57.655Z,18.47
2019-02-05T01:54:29.699Z,19.07
2019-02-05T01:57:01.686Z,19.67
2019-02-05T01:59:33.674Z,17.90
2019-02-05T02:02:05.765Z,19.90
2019-02-05T02:04:37.986Z,20.17
2019-02-05T02:07:09.955Z,18.10
2019-02-05T02:09:41.960Z,19.40
2019-02-05T02:12:13.982Z,18.47
2019-02-05T02:14:45.999Z,19.10
2019-02-05T02:17:19.883Z,19.33
2019-02-05T02:19:51.904Z,19.63
2019-02-05T02:22:23.912Z,19.40
2019-02-05T02:24:55.912Z,19.80
2019-02-05T02:27:27.934Z,18.67
2019-02-05T02:29:59.931Z,23.63
2019-02-05T02:32:31.908Z,23.20
2019-02-05T02:35:04.149Z,22.73
2019-02-05T02:37:36.151Z,19.47
2019-02-05T02:40:08.312Z,20.60
2019-02-05T02:42:40.499Z,20.10
2019-02-05T02:45:12.496Z,20.83
2019-02-05T02:47:44.500Z,21.00
2019-02-05T02:50:16.765Z,18.83
2019-02-05T02:52:49.497Z,19.70
2019-02-05T02:55:21.450Z,19.97
2019-02-05T02:57:53.437Z,27.53
2019-02-05T03:00:25.407Z,23.30
2019-02-05T03:02:57.404Z,20.73
2019-02-05T03:05:29.782Z,20.17
2019-02-05T03:08:01.759Z,21.37
2019-02-05T03:10:33.742Z,21.73
2019-02-05T03:13:05.704Z,20.57
2019-02-05T03:15:37.676Z,18.90
2019-02-05T03:18:09.715Z,19.47
2019-02-05T03:20:41.706Z,20.33
2019-02-05T03:23:13.663Z,21.23
2019-02-05T03:25:45.662Z,19.87
2019-02-05T03:28:17.670Z,17.97
2019-02-05T03:30:49.667Z,21.57
2019-02-05T03:33:23.886Z,20.73
2019-02-05T03:35:56.029Z,18.57
2019-02-05T03:38:28.024Z,19.13
2019-02-05T03:41:04.386Z,18.07
2019-02-05T03:43:37.917Z,18.37
2019-02-05T03:46:12.053Z,19.77
2019-02-05T03:48:45.625Z,19.37
2019-02-05T03:51:51.168Z,18.63
2019-02-05T03:54:56.098Z,19.10
2019-02-05T03:58:15.592Z,19.47
2019-02-05T04:01:11.350Z,17.83
2019-02-05T04:04:04.947Z,20.80
2019-02-05T04:07:08.157Z,18.60
2019-02-05T04:10:19.163Z,20.60
2019-02-05T04:13:11.158Z,18.90
2019-02-05T04:16:14.500Z,20.27
2019-02-05T04:19:12.651Z,19.37
2019-02-05T04:22:29.741Z,20.77
2019-02-05T04:25:43.810Z,19.67
2019-02-05T04:28:39.910Z,18.30
2019-02-05T04:31:42.017Z,19.67
2019-02-05T04:34:52.964Z,17.83
2019-02-05T04:37:36.216Z,19.00
2019-02-05T04:40:49.452Z,17.80
2019-02-05T04:44:01.010Z,17.50
2019-02-05T04:47:06.183Z,19.37
2019-02-05T04:50:18.484Z,18.97
2019-02-05T04:53:17.685Z,19.43
2019-02-05T04:56:18.810Z,17.37
2019-02-05T04:59:17.403Z,19.77
2019-02-05T05:02:31.184Z,20.27
2019-02-05T05:06:00.385Z,21.07
2019-02-05T05:08:49.518Z,21.83
2019-02-05T05:11:21.501Z,21.80
2019-02-05T05:13:53.461Z,21.40
2019-02-05T05:16:25.504Z,21.87
2019-02-05T05:18:57.493Z,21.87
2019-02-05T05:21:29.488Z,22.03
2019-02-05T05:24:01.845Z,20.80
2019-02-05T05:26:33.843Z,21.93
2019-02-05T05:29:05.875Z,21.60
2019-02-05T05:31:37.874Z,23.93
2019-02-05T05:34:09.813Z,23.40
2019-02-05T05:36:50.415Z,22.17
2019-02-05T05:39:22.363Z,22.00
2019-02-05T05:41:54.363Z,20.87
2019-02-05T05:44:26.347Z,22.20
2019-02-05T05:46:58.356Z,22.17
2019-02-05T05:49:30.324Z,22.10
2019-02-05T05:52:02.314Z,19.57
2019-02-05T05:54:34.279Z,22.43
2019-02-05T05:57:06.260Z,22.90
2019-02-05T05:59:38.211Z,20.07
2019-02-05T06:02:10.388Z,21.43
2019-02-05T06:04:42.381Z,21.73
2019-02-05T06:07:14.550Z,21.90
2019-02-05T06:09:46.481Z,22.17
2019-02-05T06:12:18.954Z,20.87
2019-02-05T06:14:51.190Z,21.40
2019-02-05T06:17:23.396Z,21.20
2019-02-05T06:19:55.377Z,18.53
2019-02-05T06:22:29.286Z,21.70
2019-02-05T06:25:01.275Z,21.57
2019-02-05T06:27:33.560Z,21.87
2019-02-05T06:30:07.477Z,19.67
2019-02-05T06:32:39.449Z,24.20
2019-02-05T06:35:12.467Z,22.87
2019-02-05T06:37:44.465Z,20.60
2019-02-05T06:40:17.920Z,22.87
2019-02-05T06:42:50.004Z,24.20
2019-02-05T06:45:21.979Z,23.53
2019-02-05T06:47:53.955Z,21.37
2019-02-05T06:50:25.964Z,24.37
2019-02-05T06:52:58.253Z,26.53
2019-02-05T06:55:30.350Z,24.13
2019-02-05T06:58:02.305Z,24.53
2019-02-05T07:00:34.435Z,25.10
2019-02-05T07:03:06.415Z,24.73
2019-02-05T07:05:38.894Z,24.37
2019-02-05T07:08:10.865Z,23.57
2019-02-05T07:10:42.836Z,24.00
2019-02-05T07:13:14.897Z,24.97
2019-02-05T07:15:46.874Z,23.93
2019-02-05T07:18:19.231Z,23.07
2019-02-05T07:20:51.227Z,23.90
2019-02-05T07:23:23.210Z,24.90
2019-02-05T07:25:55.195Z,23.23
2019-02-05T07:28:27.132Z,23.27
2019-02-05T07:30:59.305Z,21.77
2019-02-05T07:33:31.260Z,22.17
2019-02-05T07:36:03.276Z,23.93
2019-02-05T07:38:35.254Z,26.13
2019-02-05T07:41:07.232Z,26.87
2019-02-05T07:43:39.188Z,27.87
2019-02-05T07:46:11.614Z,26.27
2019-02-05T07:48:43.563Z,25.43
2019-02-05T07:51:15.552Z,24.93
2019-02-05T07:53:47.544Z,23.47
2019-02-05T07:56:19.521Z,23.13
2019-02-05T07:58:51.529Z,24.83
2019-02-05T08:01:23.487Z,25.43
2019-02-05T08:03:55.464Z,25.20
2019-02-05T08:06:27.430Z,25.33
2019-02-05T08:08:59.396Z,22.93
2019-02-05T08:11:31.410Z,24.27
2019-02-05T08:14:06.209Z,22.93
2019-02-05T08:16:38.281Z,22.53
2019-02-05T08:19:10.316Z,23.53
2019-02-05T08:21:42.367Z,23.13
2019-02-05T08:24:14.376Z,23.83
2019-02-05T08:26:46.421Z,26.23
2019-02-05T08:29:21.711Z,23.90
2019-02-05T08:31:52.323Z,24.77
2019-02-05T08:34:24.309Z,24.20
2019-02-05T08:36:56.324Z,24.93
2019-02-05T08:39:28.297Z,21.23
2019-02-05T08:42:02.201Z,22.27
2019-02-05T08:44:34.195Z,24.43
2019-02-05T08:47:06.194Z,23.90
2019-02-05T08:49:38.183Z,23.27
2019-02-05T08:52:10.173Z,23.03
2019-02-05T08:54:44.078Z,23.97
2019-02-05T08:57:16.038Z,25.30
2019-02-05T08:59:48.079Z,23.83
2019-02-05T09:02:20.061Z,24.17
2019-02-05T09:04:54.055Z,25.87
2019-02-05T09:07:26.520Z,24.93
2019-02-05T09:09:58.513Z,25.03
2019-02-05T09:12:30.508Z,24.23
2019-02-05T09:15:02.742Z,24.00
2019-02-05T09:17:34.792Z,26.97
2019-02-05T09:20:09.161Z,24.67
2019-02-05T09:22:41.140Z,24.27
2019-02-05T09:25:13.589Z,25.63
2019-02-05T09:27:45.546Z,26.07
2019-02-05T09:30:19.835Z,27.43
2019-02-05T09:32:53.445Z,26.87
2019-02-05T09:35:25.453Z,25.33
2019-02-05T09:37:58.003Z,28.80
2019-02-05T09:40:30.956Z,25.67
2019-02-05T09:43:02.952Z,26.93
2019-02-05T09:45:34.948Z,27.23
2019-02-05T09:48:06.928Z,27.07
2019-02-05T09:50:44.749Z,27.57
2019-02-05T09:53:12.797Z,26.30
2019-02-05T09:55:44.784Z,25.23
2019-02-05T09:58:16.740Z,24.43
2019-02-05T10:00:48.733Z,26.87
2019-02-05T10:03:20.682Z,26.17
2019-02-05T10:05:52.787Z,24.83
2019-02-05T10:08:24.756Z,24.07
2019-02-05T10:10:56.740Z,22.93
2019-02-05T10:13:28.804Z,23.40
2019-02-05T10:16:00.764Z,23.33
2019-02-05T10:18:32.737Z,24.70
2019-02-05T10:21:05.141Z,24.47
2019-02-05T10:23:37.094Z,24.33
2019-02-05T10:26:10.603Z,21.70
2019-02-05T10:28:42.570Z,23.90
2019-02-05T10:31:14.546Z,23.40
2019-02-05T10:33:54.924Z,22.40
2019-02-05T10:36:23.345Z,22.77
2019-02-05T10:38:55.620Z,22.13
2019-02-05T10:41:27.596Z,21.73
2019-02-05T10:43:59.550Z,22.60
2019-02-05T10:46:31.537Z,23.30
2019-02-05T10:49:03.708Z,21.97
2019-02-05T10:51:35.988Z,22.50
2019-02-05T10:54:07.997Z,21.47
2019-02-05T10:56:39.973Z,20.13
2019-02-05T10:59:11.963Z,20.93
2019-02-05T11:01:44.028Z,22.27
2019-02-05T11:04:17.543Z,22.97
2019-02-05T11:06:49.485Z,23.13
2019-02-05T11:09:21.554Z,22.53
2019-02-05T11:11:53.606Z,21.97
2019-02-05T11:14:25.635Z,22.37
2019-02-05T11:16:57.573Z,21.13
2019-02-05T11:19:29.593Z,21.27
2019-02-05T11:22:01.553Z,19.60
2019-02-05T11:24:33.564Z,20.00
2019-02-05T11:27:05.521Z,19.93
2019-02-05T11:29:37.523Z,17.93
2019-02-05T11:32:11.092Z,18.43
2019-02-05T11:34:43.094Z,17.67
2019-02-05T11:37:15.049Z,16.17
2019-02-05T11:39:47.026Z,17.30
2019-02-05T11:42:18.988Z,14.43
2019-02-05T11:44:51.365Z,16.43
2019-02-05T11:47:23.337Z,16.53
2019-02-05T11:49:55.338Z,16.07
2019-02-05T11:52:27.305Z,15.83
2019-02-05T11:54:59.342Z,17.30
2019-02-05T11:57:31.724Z,17.33
2019-02-05T12:00:05.857Z,17.57
2019-02-05T12:02:37.848Z,14.77
2019-02-05T12:05:09.840Z,16.33
2019-02-05T12:07:41.838Z,16.27
2019-02-05T12:10:14.160Z,15.23
2019-02-05T12:12:46.135Z,16.20
2019-02-05T12:15:18.248Z,16.57
2019-02-05T12:17:50.318Z,16.10
2019-02-05T12:20:22.607Z,16.40
2019-02-05T12:22:54.565Z,17.83
2019-02-05T12:25:26.969Z,15.83
2019-02-05T12:27:58.937Z,16.33
2019-02-05T12:30:43.921Z,17.13
2019-02-05T12:33:06.513Z,14.97
2019-02-05T12:35:38.483Z,15.77
2019-02-05T12:38:10.931Z,16.73
2019-02-05T12:40:42.887Z,15.03
2019-02-05T12:43:14.915Z,14.93
2019-02-05T12:45:46.880Z,14.20
2019-02-05T12:48:18.864Z,16.73
2019-02-05T12:50:51.234Z,16.33
2019-02-05T12:53:23.202Z,15.77
2019-02-05T12:55:55.200Z,13.97
2019-02-05T12:58:27.214Z,15.13
2019-02-05T13:01:01.139Z,15.13
2019-02-05T13:03:33.082Z,15.07
2019-02-05T13:06:05.142Z,15.23
2019-02-05T13:08:37.148Z,14.87
2019-02-05T13:11:09.130Z,14.63
2019-02-05T13:13:41.146Z,14.53
2019-02-05T13:16:13.164Z,14.63
2019-02-05T13:18:45.155Z,15.40
2019-02-05T13:21:17.189Z,13.57
2019-02-05T13:23:49.240Z,14.30
2019-02-05T13:26:21.205Z,12.70
2019-02-05T13:28:53.214Z,12.57
2019-02-05T13:31:25.225Z,12.40
2019-02-05T13:33:57.220Z,13.10
2019-02-05T13:36:29.213Z,12.40
2019-02-05T13:39:01.664Z,11.17
2019-02-05T13:41:33.660Z,11.70
2019-02-05T13:44:05.711Z,11.43
2019-02-05T13:46:39.788Z,10.67
2019-02-05T13:49:11.770Z,11.20
2019-02-05T13:51:43.844Z,12.30
2019-02-05T13:54:16.504Z,13.43
2019-02-05T13:56:48.491Z,12.77
2019-02-05T13:59:20.493Z,14.37
2019-02-05T14:01:52.480Z,12.03
2019-02-05T14:04:25.582Z,13.00
2019-02-05T14:06:57.546Z,11.03
2019-02-05T14:09:29.576Z,12.67
2019-02-05T14:12:01.594Z,11.67
2019-02-05T14:14:33.608Z,11.47
2019-02-05T14:17:05.639Z,10.47
2019-02-05T14:19:37.642Z,11.93
2019-02-05T14:22:09.629Z,11.67
2019-02-05T14:24:41.568Z,10.57
2019-02-05T14:27:13.560Z,12.70
2019-02-05T14:29:45.544Z,11.10
2019-02-05T14:32:17.560Z,12.20
2019-02-05T14:34:49.597Z,11.33
2019-02-05T14:37:21.630Z,10.27
2019-02-05T14:39:53.618Z,9.67
2019-02-05T14:42:25.656Z,11.73
2019-02-05T14:44:57.663Z,11.13
2019-02-05T14:47:29.647Z,11.83
2019-02-05T14:50:01.681Z,13.93
2019-02-05T14:52:33.678Z,10.80
2019-02-05T14:55:05.836Z,13.63
2019-02-05T14:57:37.860Z,10.83
2019-02-05T15:00:13.799Z,9.37
2019-02-05T15:02:45.823Z,11.50
2019-02-05T15:05:18.425Z,11.37
2019-02-05T15:07:50.462Z,10.37
2019-02-05T15:10:22.437Z,11.37
2019-02-05T15:12:54.435Z,11.87
2019-02-05T15:15:47.925Z,11.33
2019-02-05T15:18:21.379Z,11.87
2019-02-05T15:20:53.384Z,11.10
2019-02-05T15:23:25.403Z,10.50
2019-02-05T15:25:57.819Z,10.60
2019-02-05T15:28:29.875Z,10.10
2019-02-05T15:31:02.161Z,11.60
2019-02-05T15:33:44.799Z,12.77
2019-02-05T15:36:22.023Z,12.17
2019-02-05T15:38:54.065Z,12.57
2019-02-05T15:41:26.019Z,12.93
2019-02-05T15:44:00.641Z,12.03
2019-02-05T15:46:32.951Z,12.27
2019-02-05T15:49:04.981Z,12.87
2019-02-05T15:51:37.003Z,11.50
2019-02-05T15:54:08.996Z,10.40
2019-02-05T15:56:41.021Z,11.77
2019-02-05T15:59:13.191Z,11.73
2019-02-05T16:01:45.192Z,12.53
2019-02-05T16:04:17.184Z,12.00
2019-02-05T16:06:49.204Z,12.97
2019-02-05T16:09:21.232Z,14.80
2019-02-05T16:11:53.553Z,13.70
2019-02-05T16:14:25.564Z,14.57
2019-02-05T16:16:57.592Z,13.37
2019-02-05T16:19:29.792Z,14.70
2019-02-05T16:22:02.354Z,12.10
2019-02-05T16:24:34.734Z,12.83
2019-02-05T16:27:06.750Z,11.50
2019-02-05T16:29:38.772Z,11.87
2019-02-05T16:32:17.324Z,10.57
2019-02-05T16:34:44.670Z,11.67
2019-02-05T16:37:16.683Z,11.50
2019-02-05T16:39:48.689Z,12.60
2019-02-05T16:42:20.766Z,12.83
2019-02-05T16:44:52.757Z,11.57
2019-02-05T16:47:24.779Z,11.97
2019-02-05T16:49:56.806Z,12.10
2019-02-05T16:52:28.833Z,12.30
2019-02-05T16:55:00.814Z,11.60
2019-02-05T16:57:32.826Z,11.27
2019-02-05T17:00:11.129Z,13.83
2019-02-05T17:02:43.162Z,14.90
2019-02-05T17:05:16.013Z,22.50
2019-02-05T17:07:48.040Z,19.83
2019-02-05T17:10:20.146Z,18.63
2019-02-05T17:12:52.430Z,20.90
2019-02-05T17:15:24.434Z,20.63
2019-02-05T17:17:56.542Z,19.23
2019-02-05T17:20:29.180Z,18.13
2019-02-05T17:23:01.255Z,19.70
2019-02-05T17:25:35.811Z,15.23
2019-02-05T17:28:07.316Z,14.77
2019-02-05T17:30:39.550Z,16.97
2019-02-05T17:33:11.596Z,18.83
2019-02-05T17:35:43.633Z,15.93
2019-02-05T17:38:15.800Z,15.23
2019-02-05T17:40:47.847Z,13.67
2019-02-05T17:43:19.917Z,13.27
2019-02-05T17:45:52.432Z,13.10
2019-02-05T17:48:24.505Z,13.23
2019-02-05T17:50:56.637Z,16.43
2019-02-05T17:53:28.719Z,11.83
2019-02-05T17:56:00.754Z,12.53
2019-02-05T17:58:32.736Z,12.37
2019-02-05T18:01:10.254Z,13.43
2019-02-05T18:03:42.270Z,13.63
2019-02-05T18:06:14.344Z,13.60
2019-02-05T18:08:46.371Z,11.73
2019-02-05T18:11:18.412Z,12.47
2019-02-05T18:13:50.440Z,12.97
2019-02-05T18:16:22.461Z,13.23
2019-02-05T18:18:54.564Z,15.00
2019-02-05T18:21:27.557Z,15.13
2019-02-05T18:23:59.605Z,14.80
2019-02-05T18:26:31.699Z,14.30
2019-02-05T18:29:04.279Z,12.80
2019-02-05T18:31:36.357Z,12.10
2019-02-05T18:34:08.384Z,14.00
2019-02-05T18:36:40.906Z,14.93
2019-02-05T18:39:12.963Z,14.50
2019-02-05T18:41:45.098Z,14.37
2019-02-05T18:44:17.189Z,15.13
2019-02-05T18:46:49.269Z,15.73
2019-02-05T18:49:21.666Z,17.97
2019-02-05T18:51:53.753Z,13.60
2019-02-05T18:54:25.782Z,15.80
2019-02-05T18:56:57.990Z,15.87
2019-02-05T18:59:31.947Z,14.97
2019-02-05T19:02:04.657Z,15.80
2019-02-05T19:04:36.644Z,16.40
2019-02-05T19:07:08.744Z,17.13
2019-02-05T19:09:40.802Z,16.87
2019-02-05T19:12:12.852Z,19.17
2019-02-05T19:14:45.021Z,17.67
2019-02-05T19:17:17.085Z,17.87
2019-02-05T19:19:49.188Z,16.63
2019-02-05T19:22:21.145Z,21.27
2019-02-05T19:24:57.689Z,29.73
2019-02-05T19:27:29.744Z,21.40
2019-02-05T19:30:01.880Z,19.73
2019-02-05T19:32:34.020Z,26.30
2019-02-05T19:35:06.630Z,19.77
2019-02-05T19:37:38.783Z,30.17
2019-02-05T19:40:10.873Z,19.70
2019-02-05T19:42:42.953Z,18.00
2019-02-05T19:45:33.195Z,17.07
2019-02-05T19:48:07.042Z,16.30
2019-02-05T19:50:39.344Z,16.47
2019-02-05T19:53:11.503Z,16.60
2019-02-05T19:55:44.388Z,17.23
2019-02-05T19:58:16.630Z,16.73
2019-02-05T20:00:48.761Z,17.20
2019-02-05T20:03:21.091Z,18.60
2019-02-05T20:05:53.263Z,19.60
2019-02-05T20:08:26.905Z,19.10
2019-02-05T20:10:59.214Z,17.57
2019-02-05T20:13:39.897Z,17.50
2019-02-05T20:16:05.360Z,17.60
2019-02-05T20:18:37.385Z,17.33
2019-02-05T20:21:09.553Z,19.10
2019-02-05T20:23:41.544Z,21.00
2019-02-05T20:26:13.640Z,17.23
2019-02-05T20:28:45.677Z,21.20
2019-02-05T20:31:17.814Z,18.07
2019-02-05T20:33:50.360Z,20.77
2019-02-05T20:36:22.543Z,21.67
2019-02-05T20:38:54.715Z,22.67
2019-02-05T20:41:26.805Z,23.97
2019-02-05T20:44:00.297Z,23.50
2019-02-05T20:46:32.405Z,22.80
2019-02-05T20:49:04.484Z,22.80
2019-02-05T20:51:36.785Z,23.60
2019-02-05T20:54:09.263Z,24.63
2019-02-05T20:56:41.370Z,22.23
2019-02-05T20:59:13.484Z,20.73
2019-02-05T21:01:45.629Z,18.50
2019-02-05T21:04:18.835Z,17.77
2019-02-05T21:06:51.281Z,17.73
2019-02-05T21:09:23.436Z,19.83
2019-02-05T21:11:55.548Z,20.97
2019-02-05T21:14:27.665Z,24.20
2019-02-05T21:16:59.681Z,22.23
2019-02-05T21:19:32.191Z,32.03
2019-02-05T21:22:04.415Z,21.93
2019-02-05T21:24:36.567Z,22.03
2019-02-05T21:27:08.667Z,24.90
2019-02-05T21:29:43.445Z,22.17
2019-02-05T21:32:15.801Z,22.10
2019-02-05T21:34:47.814Z,20.73
2019-02-05T21:37:19.988Z,22.40
2019-02-05T21:40:02.119Z,23.43
2019-02-05T21:42:26.268Z,21.57
2019-02-05T21:44:58.715Z,20.07
2019-02-05T21:47:30.784Z,22.93
2019-02-05T21:50:05.358Z,22.17
2019-02-05T21:52:37.509Z,21.07
2019-02-05T21:55:10.415Z,20.67
2019-02-05T21:57:42.728Z,21.00
2019-02-05T22:00:19.977Z,18.30
2019-02-05T22:02:52.418Z,21.53
2019-02-05T22:05:25.209Z,20.97
2019-02-05T22:07:57.370Z,20.87
2019-02-05T22:10:29.441Z,20.13
2019-02-05T22:13:03.314Z,20.30
2019-02-05T22:15:36.890Z,21.20
2019-02-05T22:18:08.980Z,23.13
2019-02-05T22:20:41.236Z,23.93
2019-02-05T22:23:13.567Z,23.73
2019-02-05T22:25:47.373Z,26.23
2019-02-05T22:28:20.628Z,26.07
2019-02-05T22:30:54.132Z,22.33
2019-02-05T22:33:28.048Z,24.03
2019-02-05T22:36:00.072Z,27.97
2019-02-05T22:38:32.280Z,25.00
2019-02-05T22:41:04.355Z,27.00
2019-02-05T22:43:36.412Z,27.73
2019-02-05T22:46:08.451Z,30.10
2019-02-05T22:48:41.049Z,29.50
2019-02-05T22:51:13.184Z,31.00
2019-02-05T22:53:45.197Z,30.30
2019-02-05T22:56:17.239Z,32.47
2019-02-05T22:58:49.412Z,32.13
2019-02-05T23:01:51.389Z,30.13
2019-02-05T23:05:23.715Z,30.03
2019-02-05T23:07:55.842Z,28.47
2019-02-05T23:11:04.998Z,27.37
2019-02-05T23:13:37.307Z,31.40
2019-02-05T23:16:09.345Z,30.00
2019-02-05T23:18:41.443Z,29.23
2019-02-05T23:21:13.439Z,29.87
2019-02-05T23:23:45.442Z,30.13
2019-02-05T23:26:19.388Z,27.80
2019-02-05T23:28:51.400Z,31.03
2019-02-05T23:31:23.401Z,32.03
2019-02-05T23:33:56.526Z,29.70
2019-02-05T23:36:28.510Z,29.57
2019-02-05T23:39:00.863Z,29.47
2019-02-05T23:41:33.971Z,26.97
2019-02-05T23:44:06.280Z,31.93
2019-02-05T23:46:38.272Z,28.10
2019-02-05T23:49:10.502Z,27.23
2019-02-05T23:51:42.566Z,29.80
2019-02-05T23:54:14.581Z,26.40
2019-02-05T23:56:46.582Z,29.67
2019-02-05T23:59:18.598Z,28.53
